createdAt,value
2022-11-17T00:02:24.361Z,6.90
2022-11-17T00:04:52.288Z,6.90
2022-11-17T00:07:20.172Z,6.90
2022-11-17T00:09:49.362Z,6.90
2022-11-17T00:12:34.779Z,6.90
2022-11-17T00:15:02.611Z,6.90
2022-11-17T00:17:30.471Z,6.90
2022-11-17T00:20:15.810Z,6.90
2022-11-17T00:22:43.617Z,6.80
2022-11-17T00:25:12.796Z,6.80
2022-11-17T00:27:40.598Z,6.80
2022-11-17T00:30:29.652Z,6.70
2022-11-17T00:33:19.664Z,6.70
2022-11-17T00:35:52.090Z,6.70
2022-11-17T00:38:19.926Z,6.70
2022-11-17T00:40:49.103Z,6.60
2022-11-17T00:43:16.935Z,6.70
2022-11-17T00:45:44.746Z,6.70
2022-11-17T00:48:13.768Z,6.50
2022-11-17T00:50:41.579Z,6.70
2022-11-17T00:53:09.752Z,6.60
2022-11-17T00:55:37.695Z,6.50
2022-11-17T00:58:06.960Z,6.70
2022-11-17T01:00:34.815Z,6.70
2022-11-17T01:03:02.637Z,6.70
2022-11-17T01:05:33.181Z,6.60
2022-11-17T01:08:01.166Z,6.60
2022-11-17T01:10:29.007Z,6.60
2022-11-17T01:12:56.829Z,6.60
2022-11-17T01:15:26.019Z,6.60
2022-11-17T01:17:53.870Z,6.60
2022-11-17T01:20:22.464Z,6.90
2022-11-17T01:22:50.280Z,6.60
2022-11-17T01:25:18.236Z,6.90
2022-11-17T01:27:46.069Z,6.50
2022-11-17T01:30:14.744Z,6.60
2022-11-17T01:32:43.925Z,6.50
2022-11-17T01:35:11.756Z,6.50
2022-11-17T01:37:39.566Z,6.50
2022-11-17T01:40:09.238Z,6.60
2022-11-17T01:42:37.057Z,6.50
2022-11-17T01:45:17.598Z,6.50
2022-11-17T01:47:50.071Z,6.50
2022-11-17T01:50:27.579Z,6.50
2022-11-17T01:52:59.539Z,6.50
2022-11-17T01:55:33.138Z,6.50
2022-11-17T01:58:05.898Z,6.50
2022-11-17T02:00:33.956Z,6.40
2022-11-17T02:03:06.972Z,6.60
2022-11-17T02:05:43.225Z,7.00
2022-11-17T02:08:12.061Z,6.50
2022-11-17T02:10:40.599Z,6.60
2022-11-17T02:13:09.248Z,6.50
2022-11-17T02:15:37.080Z,6.50
2022-11-17T02:18:06.828Z,6.60
2022-11-17T02:20:57.691Z,6.60
2022-11-17T02:23:51.092Z,6.60
2022-11-17T02:26:41.792Z,6.60
2022-11-17T02:29:18.086Z,6.60
2022-11-17T02:31:54.556Z,6.70
2022-11-17T02:34:31.503Z,6.60
2022-11-17T02:37:04.925Z,6.80
2022-11-17T02:39:37.126Z,6.60
2022-11-17T02:42:10.964Z,6.60
2022-11-17T02:44:45.047Z,6.60
2022-11-17T02:47:16.705Z,6.60
2022-11-17T02:49:48.151Z,6.60
2022-11-17T02:52:18.284Z,6.60
2022-11-17T02:54:46.105Z,6.60
2022-11-17T02:57:28.949Z,6.60
2022-11-17T02:59:59.802Z,6.60
2022-11-17T03:02:42.484Z,6.60
2022-11-17T03:05:16.059Z,6.50
2022-11-17T03:08:08.113Z,6.60
2022-11-17T03:10:45.645Z,6.60
2022-11-17T03:13:19.951Z,6.60
2022-11-17T03:15:56.085Z,6.60
2022-11-17T03:18:30.427Z,6.70
2022-11-17T03:21:09.830Z,6.60
2022-11-17T03:23:43.585Z,6.50
2022-11-17T03:26:14.426Z,6.60
2022-11-17T03:28:44.722Z,6.70
2022-11-17T03:31:15.023Z,6.70
2022-11-17T03:33:46.177Z,6.70
2022-11-17T03:36:18.668Z,6.70
2022-11-17T03:38:51.315Z,6.70
2022-11-17T03:41:22.275Z,6.50
2022-11-17T03:43:52.389Z,6.70
2022-11-17T03:46:24.208Z,6.70
2022-11-17T03:48:56.560Z,6.60
2022-11-17T03:51:25.811Z,6.60
2022-11-17T03:53:55.385Z,6.60
2022-11-17T03:56:35.443Z,6.60
2022-11-17T03:59:07.512Z,6.60
2022-11-17T04:01:37.795Z,6.50
2022-11-17T04:04:05.865Z,6.70
2022-11-17T04:06:33.706Z,6.70
2022-11-17T04:09:01.542Z,6.70
2022-11-17T04:11:47.130Z,6.80
2022-11-17T04:14:32.682Z,6.80
2022-11-17T04:17:01.827Z,6.80
2022-11-17T04:19:29.740Z,6.80
2022-11-17T04:21:57.561Z,6.80
2022-11-17T04:24:25.376Z,6.80
2022-11-17T04:27:19.157Z,6.80
2022-11-17T04:29:46.991Z,6.80
2022-11-17T04:32:16.156Z,7.10
2022-11-17T04:34:44.004Z,6.80
2022-11-17T04:37:17.549Z,6.70
2022-11-17T04:39:45.966Z,7.40
2022-11-17T04:42:12.885Z,6.80
2022-11-17T04:44:40.814Z,7.20
2022-11-17T04:47:08.639Z,6.80
2022-11-17T04:49:37.889Z,6.80
2022-11-17T04:52:06.142Z,6.80
2022-11-17T04:54:34.011Z,6.90
2022-11-17T04:57:01.824Z,6.90
2022-11-17T04:59:29.641Z,6.90
2022-11-17T05:02:01.164Z,6.90
2022-11-17T05:04:49.804Z,6.90
2022-11-17T05:07:18.979Z,6.90
2022-11-17T05:09:46.869Z,6.90
2022-11-17T05:12:32.044Z,6.90
2022-11-17T05:14:59.869Z,6.90
2022-11-17T05:17:26.738Z,6.90
2022-11-17T05:19:54.703Z,7.00
2022-11-17T05:22:42.257Z,7.00
2022-11-17T05:25:10.929Z,6.90
2022-11-17T05:27:39.052Z,6.90
2022-11-17T05:30:08.636Z,6.90
2022-11-17T05:32:36.489Z,7.00
2022-11-17T05:35:04.499Z,7.00
2022-11-17T05:37:33.659Z,7.00
2022-11-17T05:40:01.480Z,7.00
2022-11-17T05:42:29.293Z,7.00
2022-11-17T05:44:57.120Z,7.00
2022-11-17T05:47:24.920Z,7.10
2022-11-17T05:49:52.759Z,7.20
2022-11-17T05:52:20.568Z,7.10
2022-11-17T05:54:49.735Z,7.10
2022-11-17T05:57:24.204Z,7.10
2022-11-17T05:59:55.286Z,7.10
2022-11-17T06:02:27.491Z,7.10
2022-11-17T06:04:55.337Z,7.10
2022-11-17T06:07:23.336Z,7.10
2022-11-17T06:09:53.399Z,7.10
2022-11-17T06:12:21.448Z,7.10
2022-11-17T06:14:49.274Z,7.10
2022-11-17T06:17:22.856Z,7.10
2022-11-17T06:19:55.414Z,7.10
2022-11-17T06:22:23.264Z,7.10
2022-11-17T06:24:52.486Z,7.10
2022-11-17T06:27:20.355Z,7.10
2022-11-17T06:29:48.748Z,7.20
2022-11-17T06:32:18.532Z,7.20
2022-11-17T06:34:54.862Z,7.20
2022-11-17T06:37:23.882Z,7.20
2022-11-17T06:39:53.124Z,7.20
2022-11-17T06:42:40.944Z,7.20
2022-11-17T06:45:09.814Z,7.60
2022-11-17T06:47:37.732Z,7.30
2022-11-17T06:50:06.024Z,7.20
2022-11-17T06:52:33.863Z,7.30
2022-11-17T06:55:03.032Z,7.30
2022-11-17T06:57:31.125Z,7.30
2022-11-17T06:59:58.955Z,7.30
2022-11-17T07:02:26.813Z,7.30
2022-11-17T07:04:54.657Z,7.70
2022-11-17T07:07:22.491Z,7.30
2022-11-17T07:09:50.407Z,7.30
2022-11-17T07:12:19.588Z,7.40
2022-11-17T07:14:47.445Z,7.40
2022-11-17T07:17:15.296Z,7.40
2022-11-17T07:19:43.117Z,7.40
2022-11-17T07:22:10.973Z,8.00
2022-11-17T07:24:38.897Z,7.50
2022-11-17T07:27:06.767Z,7.50
2022-11-17T07:29:35.942Z,7.50
2022-11-17T07:32:04.960Z,7.60
2022-11-17T07:34:32.756Z,7.50
2022-11-17T07:37:00.648Z,7.80
2022-11-17T07:39:28.458Z,8.20
2022-11-17T07:41:56.313Z,7.60
2022-11-17T07:44:24.152Z,7.60
2022-11-17T07:46:53.353Z,7.60
2022-11-17T07:49:21.179Z,7.80
2022-11-17T07:51:49.063Z,7.60
2022-11-17T07:54:16.898Z,7.60
2022-11-17T07:56:44.987Z,7.60
2022-11-17T07:59:17.178Z,7.80
2022-11-17T08:01:47.973Z,7.90
2022-11-17T08:04:17.188Z,8.20
2022-11-17T08:06:45.250Z,7.80
2022-11-17T08:09:14.171Z,7.80
2022-11-17T08:11:42.119Z,7.80
2022-11-17T08:14:10.605Z,7.90
2022-11-17T08:16:38.449Z,8.00
2022-11-17T08:19:06.567Z,8.00
2022-11-17T08:21:37.924Z,7.90
2022-11-17T08:24:06.909Z,8.10
2022-11-17T08:26:34.769Z,8.00
2022-11-17T08:29:02.703Z,8.00
2022-11-17T08:31:30.576Z,8.10
2022-11-17T08:33:58.387Z,8.00
2022-11-17T08:36:26.223Z,8.60
2022-11-17T08:38:55.404Z,8.00
2022-11-17T08:41:23.308Z,8.10
2022-11-17T08:43:51.446Z,8.10
2022-11-17T08:46:19.288Z,8.20
2022-11-17T08:48:48.968Z,8.80
2022-11-17T08:51:20.216Z,8.20
2022-11-17T08:53:48.079Z,8.20
2022-11-17T08:56:17.367Z,9.80
2022-11-17T08:58:46.440Z,8.20
2022-11-17T09:01:16.616Z,8.20
2022-11-17T09:03:45.827Z,8.40
2022-11-17T09:06:15.052Z,8.30
2022-11-17T09:08:46.271Z,8.30
2022-11-17T09:11:15.501Z,8.30
2022-11-17T09:13:45.627Z,8.30
2022-11-17T09:16:14.171Z,8.40
2022-11-17T09:18:42.417Z,8.30
2022-11-17T09:21:12.007Z,8.40
2022-11-17T09:23:40.257Z,8.40
2022-11-17T09:26:09.981Z,8.40
2022-11-17T09:28:38.296Z,8.50
2022-11-17T09:31:12.952Z,8.50
2022-11-17T09:33:41.395Z,8.60
2022-11-17T09:36:10.139Z,8.60
2022-11-17T09:38:39.026Z,8.50
2022-11-17T09:41:23.785Z,8.60
2022-11-17T09:44:00.206Z,8.60
2022-11-17T09:46:42.452Z,8.60
2022-11-17T09:49:18.113Z,8.60
2022-11-17T09:51:49.395Z,8.70
2022-11-17T09:54:25.628Z,8.70
2022-11-17T09:56:55.276Z,8.70
2022-11-17T09:59:28.159Z,8.80
2022-11-17T10:01:57.373Z,8.80
2022-11-17T10:04:30.077Z,8.90
2022-11-17T10:06:59.368Z,8.90
2022-11-17T10:09:36.064Z,8.90
2022-11-17T10:12:14.827Z,9.00
2022-11-17T10:14:43.705Z,9.00
2022-11-17T10:17:13.599Z,9.10
2022-11-17T10:19:43.813Z,9.10
2022-11-17T10:22:27.751Z,9.10
2022-11-17T10:24:57.786Z,9.10
2022-11-17T10:27:28.476Z,9.20
2022-11-17T10:30:00.757Z,9.20
2022-11-17T10:32:30.989Z,9.20
2022-11-17T10:35:15.322Z,9.30
2022-11-17T10:37:52.091Z,9.30
2022-11-17T10:40:25.381Z,9.40
2022-11-17T10:43:05.152Z,9.40
2022-11-17T10:45:34.357Z,9.40
2022-11-17T10:48:26.906Z,9.40
2022-11-17T10:50:57.757Z,9.50
2022-11-17T10:53:30.001Z,9.50
2022-11-17T10:55:59.316Z,9.50
2022-11-17T10:58:29.136Z,9.60
2022-11-17T11:00:59.002Z,9.70
2022-11-17T11:03:30.601Z,9.60
2022-11-17T11:06:05.206Z,9.50
2022-11-17T11:08:46.919Z,9.60
2022-11-17T11:11:22.607Z,9.60
2022-11-17T11:13:57.159Z,9.70
2022-11-17T11:16:27.501Z,9.70
2022-11-17T11:18:56.726Z,9.80
2022-11-17T11:21:45.817Z,9.80
2022-11-17T11:24:22.008Z,9.90
2022-11-17T11:27:03.301Z,10.00
2022-11-17T11:29:44.105Z,10.00
2022-11-17T11:32:24.679Z,10.30
2022-11-17T11:35:40.397Z,10.20
2022-11-17T11:38:28.158Z,10.20
2022-11-17T11:41:13.632Z,10.20
2022-11-17T11:43:51.543Z,10.20
2022-11-17T11:46:27.171Z,10.20
2022-11-17T11:48:58.545Z,10.10
2022-11-17T11:51:35.795Z,10.10
2022-11-17T11:54:09.288Z,10.10
2022-11-17T11:56:41.375Z,10.20
2022-11-17T11:59:16.493Z,10.20
2022-11-17T12:01:49.478Z,10.10
2022-11-17T12:04:28.268Z,10.20
2022-11-17T12:07:06.699Z,10.20
2022-11-17T12:09:55.523Z,10.20
2022-11-17T12:12:31.337Z,10.20
2022-11-17T12:15:32.101Z,10.30
2022-11-17T12:18:02.136Z,10.40
2022-11-17T12:20:53.619Z,10.40
2022-11-17T12:23:33.805Z,10.40
2022-11-17T12:26:02.823Z,10.40
2022-11-17T12:28:35.499Z,10.40
2022-11-17T12:31:09.797Z,10.40
2022-11-17T12:34:19.646Z,10.40
2022-11-17T12:37:08.238Z,10.50
2022-11-17T12:40:05.354Z,10.60
2022-11-17T12:42:34.777Z,10.60
2022-11-17T12:45:10.173Z,10.60
2022-11-17T12:47:39.811Z,10.50
2022-11-17T12:50:36.525Z,10.60
2022-11-17T12:53:40.371Z,10.70
2022-11-17T12:56:38.279Z,10.80
2022-11-17T12:59:29.321Z,11.10
2022-11-17T13:02:05.543Z,11.20
2022-11-17T13:04:45.066Z,11.10
2022-11-17T13:07:20.858Z,11.10
2022-11-17T13:09:52.869Z,11.10
2022-11-17T13:12:25.580Z,11.50
2022-11-17T13:14:55.417Z,11.70
2022-11-17T13:17:28.268Z,12.00
2022-11-17T13:20:02.240Z,12.20
2022-11-17T13:22:30.079Z,12.10
2022-11-17T13:24:58.029Z,12.00
2022-11-17T13:27:28.625Z,11.90
2022-11-17T13:30:14.596Z,11.70
2022-11-17T13:32:43.028Z,11.60
2022-11-17T13:35:23.054Z,11.50
2022-11-17T13:38:05.960Z,11.40
2022-11-17T13:40:35.780Z,11.30
2022-11-17T13:43:06.251Z,11.20
2022-11-17T13:45:34.376Z,11.10
2022-11-17T13:48:02.218Z,11.10
2022-11-17T13:50:40.448Z,11.10
2022-11-17T13:53:25.689Z,11.30
2022-11-17T13:55:54.294Z,11.40
2022-11-17T13:58:30.109Z,11.40
2022-11-17T14:00:59.851Z,11.40
2022-11-17T14:03:36.096Z,11.50
2022-11-17T14:06:06.221Z,11.70
2022-11-17T14:08:35.252Z,11.90
2022-11-17T14:11:14.291Z,11.90
2022-11-17T14:13:46.075Z,11.90
2022-11-17T14:16:23.402Z,11.90
2022-11-17T14:19:00.215Z,11.90
2022-11-17T14:21:28.583Z,11.70
2022-11-17T14:24:11.112Z,11.70
2022-11-17T14:26:44.944Z,11.60
2022-11-17T14:29:14.407Z,11.50
2022-11-17T14:31:43.191Z,11.40
2022-11-17T14:34:11.054Z,11.40
2022-11-17T14:36:40.188Z,11.40
2022-11-17T14:39:15.131Z,11.30
2022-11-17T14:41:43.421Z,11.40
2022-11-17T14:44:11.288Z,11.20
2022-11-17T14:46:40.824Z,11.10
2022-11-17T14:49:09.513Z,11.00
2022-11-17T14:51:37.595Z,11.00
2022-11-17T14:54:05.604Z,10.90
2022-11-17T14:56:34.655Z,10.90
2022-11-17T14:59:02.496Z,10.90
2022-11-17T15:01:32.370Z,10.80
2022-11-17T15:04:20.762Z,10.60
2022-11-17T15:06:51.074Z,10.70
2022-11-17T15:09:20.474Z,10.70
2022-11-17T15:11:48.749Z,10.70
2022-11-17T15:14:16.817Z,10.60
2022-11-17T15:16:44.891Z,10.60
2022-11-17T15:19:14.050Z,10.60
2022-11-17T15:21:41.999Z,10.50
2022-11-17T15:24:10.363Z,10.50
2022-11-17T15:26:38.186Z,10.50
2022-11-17T15:29:06.011Z,10.40
2022-11-17T15:31:33.820Z,10.40
2022-11-17T15:34:02.551Z,10.40
2022-11-17T15:36:32.748Z,10.30
2022-11-17T15:39:00.741Z,10.30
2022-11-17T15:41:32.840Z,10.30
2022-11-17T15:44:01.309Z,10.20
2022-11-17T15:46:29.598Z,10.10
2022-11-17T15:48:57.777Z,10.20
2022-11-17T15:51:27.814Z,10.10
2022-11-17T15:54:00.231Z,10.10
2022-11-17T15:56:29.432Z,10.10
2022-11-17T15:58:58.945Z,10.10
2022-11-17T16:01:28.356Z,10.00
2022-11-17T16:04:00.803Z,10.00
2022-11-17T16:06:29.611Z,10.00
2022-11-17T16:08:58.998Z,10.10
2022-11-17T16:11:27.905Z,10.00
2022-11-17T16:13:56.366Z,9.90
2022-11-17T16:16:25.608Z,9.90
2022-11-17T16:18:53.555Z,9.90
2022-11-17T16:21:21.724Z,10.20
2022-11-17T16:23:51.177Z,9.80
2022-11-17T16:26:21.090Z,9.80
2022-11-17T16:28:49.505Z,9.80
2022-11-17T16:31:19.716Z,9.80
2022-11-17T16:33:49.220Z,9.80
2022-11-17T16:36:17.228Z,9.90
2022-11-17T16:38:59.705Z,9.80
2022-11-17T16:41:32.113Z,9.80
2022-11-17T16:44:00.540Z,9.80
2022-11-17T16:46:30.410Z,9.80
2022-11-17T16:49:01.794Z,9.80
2022-11-17T16:51:29.640Z,9.70
2022-11-17T16:53:59.318Z,9.70
2022-11-17T16:56:27.239Z,9.70
2022-11-17T16:58:56.470Z,9.70
2022-11-17T17:01:27.528Z,9.70
2022-11-17T17:03:59.637Z,9.70
2022-11-17T17:06:27.984Z,9.60
2022-11-17T17:08:56.252Z,9.60
2022-11-17T17:11:24.058Z,9.60
2022-11-17T17:13:52.039Z,9.60
2022-11-17T17:16:21.551Z,9.60
2022-11-17T17:18:49.838Z,9.50
2022-11-17T17:21:19.835Z,9.50
2022-11-17T17:23:47.701Z,9.50
2022-11-17T17:26:18.215Z,9.50
2022-11-17T17:28:48.307Z,9.50
2022-11-17T17:31:21.426Z,9.50
2022-11-17T17:33:52.035Z,9.50
2022-11-17T17:36:21.239Z,9.50
2022-11-17T17:38:55.005Z,9.60
2022-11-17T17:41:25.019Z,9.60
2022-11-17T17:43:57.037Z,9.60
2022-11-17T17:46:25.699Z,9.70
2022-11-17T17:48:55.406Z,9.60
2022-11-17T17:51:24.969Z,9.60
2022-11-17T17:53:53.263Z,9.60
2022-11-17T17:56:22.303Z,9.60
2022-11-17T17:58:51.620Z,9.60
2022-11-17T18:01:21.856Z,9.60
2022-11-17T18:03:50.926Z,9.60
2022-11-17T18:06:21.994Z,9.40
2022-11-17T18:08:50.203Z,9.50
2022-11-17T18:11:20.038Z,10.00
2022-11-17T18:13:49.961Z,9.60
2022-11-17T18:16:21.373Z,9.50
2022-11-17T18:18:49.578Z,9.50
2022-11-17T18:21:18.873Z,9.50
2022-11-17T18:23:48.138Z,9.50
2022-11-17T18:26:19.319Z,9.50
2022-11-17T18:28:52.415Z,9.50
2022-11-17T18:31:21.057Z,9.40
2022-11-17T18:33:52.287Z,9.40
2022-11-17T18:36:21.114Z,10.10
2022-11-17T18:38:52.060Z,9.40
2022-11-17T18:41:21.700Z,9.70
2022-11-17T18:43:50.096Z,9.40
2022-11-17T18:46:19.936Z,9.40
2022-11-17T18:48:49.121Z,9.40
2022-11-17T18:51:20.568Z,9.40
2022-11-17T18:53:51.454Z,9.40
2022-11-17T18:56:20.872Z,9.30
2022-11-17T18:58:48.861Z,9.40
2022-11-17T19:01:18.347Z,9.40
2022-11-17T19:03:47.851Z,9.40
2022-11-17T19:06:16.834Z,9.40
2022-11-17T19:08:44.869Z,9.40
2022-11-17T19:11:14.156Z,9.40
2022-11-17T19:13:43.241Z,9.40
2022-11-17T19:16:13.440Z,9.40
2022-11-17T19:18:41.628Z,9.30
2022-11-17T19:21:11.366Z,9.40
2022-11-17T19:23:43.466Z,9.40
2022-11-17T19:26:16.239Z,9.30
2022-11-17T19:28:44.823Z,9.40
2022-11-17T19:31:15.300Z,9.40
2022-11-17T19:33:43.955Z,9.30
2022-11-17T19:36:13.759Z,9.30
2022-11-17T19:38:43.132Z,9.70
2022-11-17T19:41:12.529Z,9.30
2022-11-17T19:43:45.437Z,9.40
2022-11-17T19:46:16.725Z,9.30
2022-11-17T19:48:45.510Z,9.30
2022-11-17T19:51:16.441Z,9.30
2022-11-17T19:53:44.320Z,9.40
2022-11-17T19:56:12.203Z,9.40
2022-11-17T19:58:41.947Z,9.40
2022-11-17T20:01:11.884Z,9.30
2022-11-17T20:03:40.573Z,9.40
2022-11-17T20:06:10.054Z,9.30
2022-11-17T20:08:37.948Z,9.40
2022-11-17T20:11:08.423Z,9.40
2022-11-17T20:13:37.285Z,9.40
2022-11-17T20:16:12.017Z,9.40
2022-11-17T20:18:40.469Z,9.40
2022-11-17T20:21:09.050Z,9.40
2022-11-17T20:23:38.370Z,9.40
2022-11-17T20:26:07.053Z,9.40
2022-11-17T20:28:35.343Z,9.40
2022-11-17T20:31:09.763Z,9.40
2022-11-17T20:33:37.772Z,9.50
2022-11-17T20:36:07.134Z,9.50
2022-11-17T20:38:35.853Z,9.40
2022-11-17T20:41:04.655Z,9.50
2022-11-17T20:43:33.192Z,9.50
2022-11-17T20:46:01.524Z,9.50
2022-11-17T20:48:32.257Z,9.50
2022-11-17T20:51:01.401Z,9.50
2022-11-17T20:53:29.962Z,9.50
2022-11-17T20:55:58.309Z,9.50
2022-11-17T20:58:27.076Z,9.50
2022-11-17T21:00:55.263Z,9.50
2022-11-17T21:03:23.681Z,9.50
2022-11-17T21:06:00.273Z,9.50
2022-11-17T21:08:30.085Z,9.50
2022-11-17T21:10:58.872Z,9.50
2022-11-17T21:13:26.811Z,9.50
2022-11-17T21:16:08.676Z,9.90
2022-11-17T21:18:38.121Z,9.50
2022-11-17T21:21:09.461Z,9.40
2022-11-17T21:23:38.074Z,9.50
2022-11-17T21:26:06.748Z,9.50
2022-11-17T21:28:34.948Z,9.50
2022-11-17T21:31:08.304Z,9.50
2022-11-17T21:33:36.529Z,9.40
2022-11-17T21:36:05.441Z,9.50
2022-11-17T21:38:35.079Z,9.50
2022-11-17T21:41:03.794Z,9.50
2022-11-17T21:43:32.111Z,9.50
2022-11-17T21:46:03.307Z,9.50
2022-11-17T21:48:31.169Z,9.50
2022-11-17T21:50:59.609Z,9.50
2022-11-17T21:53:27.703Z,9.50
2022-11-17T21:56:01.357Z,9.50
2022-11-17T21:58:29.343Z,9.50
2022-11-17T22:00:57.357Z,9.50
2022-11-17T22:03:25.607Z,9.50
2022-11-17T22:05:56.764Z,9.50
2022-11-17T22:08:27.443Z,9.50
2022-11-17T22:10:55.276Z,9.60
2022-11-17T22:13:24.465Z,9.60
2022-11-17T22:15:52.324Z,9.60
2022-11-17T22:18:20.181Z,9.60
2022-11-17T22:20:51.726Z,9.60
2022-11-17T22:23:19.591Z,9.60
2022-11-17T22:25:54.212Z,10.20
2022-11-17T22:28:22.338Z,9.60
2022-11-17T22:30:52.047Z,9.60
2022-11-17T22:33:20.442Z,9.70
2022-11-17T22:35:48.596Z,9.60
2022-11-17T22:38:17.031Z,9.60
2022-11-17T22:40:44.997Z,9.90
2022-11-17T22:43:15.519Z,9.60
2022-11-17T22:45:43.781Z,9.60
2022-11-17T22:48:12.969Z,9.60
2022-11-17T22:50:41.138Z,10.10
2022-11-17T22:53:09.013Z,9.60
2022-11-17T22:55:37.288Z,9.60
2022-11-17T22:58:05.172Z,9.70
2022-11-17T23:00:33.077Z,9.60
2022-11-17T23:03:00.945Z,10.10
2022-11-17T23:05:30.190Z,9.70
2022-11-17T23:07:58.003Z,9.70
2022-11-17T23:10:26.062Z,9.70
2022-11-17T23:12:54.405Z,9.70
2022-11-17T23:15:22.629Z,9.70
2022-11-17T23:17:50.448Z,9.70
2022-11-17T23:20:18.736Z,9.70
2022-11-17T23:22:47.915Z,10.80
2022-11-17T23:25:15.868Z,9.70
2022-11-17T23:27:43.712Z,9.70
2022-11-17T23:30:12.773Z,9.70
2022-11-17T23:32:40.608Z,9.70
2022-11-17T23:35:09.588Z,10.20
2022-11-17T23:37:37.411Z,9.70
2022-11-17T23:40:07.804Z,9.70
2022-11-17T23:42:41.653Z,9.70
2022-11-17T23:45:12.738Z,9.70
2022-11-17T23:47:40.871Z,9.80
2022-11-17T23:50:09.687Z,9.70
2022-11-17T23:52:37.520Z,9.80
2022-11-17T23:55:08.513Z,9.70
2022-11-17T23:57:36.353Z,9.80
